sensor_id;sensor_type;location;lat;lon;timestamp;P1;durP1;ratioP1;P2;durP2;ratioP2
28180;SDS011;15464;50.988;10.318;2023-03-01T00:01:27;30.17;;;20.48;;
28180;SDS011;15464;50.988;10.318;2023-03-01T00:03:56;29.10;;;21.60;;
28180;SDS011;15464;50.988;10.318;2023-03-01T00:06:23;28.67;;;20.05;;
28180;SDS011;15464;50.988;10.318;2023-03-01T00:08:51;35.50;;;22.80;;
28180;SDS011;15464;50.988;10.318;2023-03-01T00:13:47;32.23;;;22.53;;
28180;SDS011;15464;50.988;10.318;2023-03-01T00:16:17;35.42;;;23.73;;
28180;SDS011;15464;50.988;10.318;2023-03-01T00:18:44;28.70;;;20.52;;
28180;SDS011;15464;50.988;10.318;2023-03-01T00:21:11;34.42;;;25.15;;
28180;SDS011;15464;50.988;10.318;2023-03-01T00:23:38;35.22;;;24.30;;
28180;SDS011;15464;50.988;10.318;2023-03-01T00:33:40;36.97;;;24.80;;
28180;SDS011;15464;50.988;10.318;2023-03-01T00:36:07;36.65;;;24.35;;
28180;SDS011;15464;50.988;10.318;2023-03-01T00:38:36;35.70;;;24.35;;
28180;SDS011;15464;50.988;10.318;2023-03-01T00:41:07;35.17;;;23.58;;
28180;SDS011;15464;50.988;10.318;2023-03-01T00:43:35;31.10;;;22.02;;
28180;SDS011;15464;50.988;10.318;2023-03-01T00:46:04;31.70;;;21.38;;
28180;SDS011;15464;50.988;10.318;2023-03-01T00:48:33;34.30;;;24.45;;
28180;SDS011;15464;50.988;10.318;2023-03-01T00:51:18;32.10;;;22.17;;
28180;SDS011;15464;50.988;10.318;2023-03-01T00:53:50;35.13;;;20.65;;
28180;SDS011;15464;50.988;10.318;2023-03-01T00:56:18;35.17;;;23.97;;
28180;SDS011;15464;50.988;10.318;2023-03-01T00:58:45;33.85;;;23.58;;
28180;SDS011;15464;50.988;10.318;2023-03-01T01:01:14;40.28;;;23.77;;
28180;SDS011;15464;50.988;10.318;2023-03-01T01:03:47;33.28;;;23.98;;
28180;SDS011;15464;50.988;10.318;2023-03-01T01:06:19;36.58;;;24.88;;
28180;SDS011;15464;50.988;10.318;2023-03-01T01:08:56;32.17;;;22.45;;
28180;SDS011;15464;50.988;10.318;2023-03-01T01:11:24;34.00;;;23.15;;
28180;SDS011;15464;50.988;10.318;2023-03-01T01:13:52;33.55;;;22.50;;
28180;SDS011;15464;50.988;10.318;2023-03-01T01:16:20;35.33;;;24.33;;
28180;SDS011;15464;50.988;10.318;2023-03-01T01:18:48;37.60;;;25.48;;
28180;SDS011;15464;50.988;10.318;2023-03-01T01:21:16;42.83;;;26.45;;
28180;SDS011;15464;50.988;10.318;2023-03-01T01:23:45;39.85;;;26.85;;
28180;SDS011;15464;50.988;10.318;2023-03-01T01:26:17;37.38;;;26.00;;
28180;SDS011;15464;50.988;10.318;2023-03-01T01:28:51;31.57;;;22.30;;
28180;SDS011;15464;50.988;10.318;2023-03-01T01:31:18;38.13;;;27.27;;
28180;SDS011;15464;50.988;10.318;2023-03-01T01:33:45;42.17;;;28.05;;
28180;SDS011;15464;50.988;10.318;2023-03-01T01:36:12;42.45;;;27.50;;
28180;SDS011;15464;50.988;10.318;2023-03-01T01:38:39;34.75;;;25.25;;
28180;SDS011;15464;50.988;10.318;2023-03-01T01:41:06;37.90;;;26.17;;
28180;SDS011;15464;50.988;10.318;2023-03-01T01:43:34;37.65;;;24.13;;
28180;SDS011;15464;50.988;10.318;2023-03-01T01:46:04;44.97;;;29.25;;
28180;SDS011;15464;50.988;10.318;2023-03-01T01:48:40;42.30;;;28.60;;
28180;SDS011;15464;50.988;10.318;2023-03-01T01:51:12;41.55;;;26.83;;
28180;SDS011;15464;50.988;10.318;2023-03-01T01:53:43;38.10;;;25.92;;
28180;SDS011;15464;50.988;10.318;2023-03-01T01:56:15;39.75;;;26.45;;
28180;SDS011;15464;50.988;10.318;2023-03-01T01:58:43;42.17;;;27.55;;
28180;SDS011;15464;50.988;10.318;2023-03-01T02:01:11;41.47;;;27.88;;
28180;SDS011;15464;50.988;10.318;2023-03-01T02:03:38;39.90;;;28.35;;
28180;SDS011;15464;50.988;10.318;2023-03-01T02:08:59;39.58;;;27.42;;
28180;SDS011;15464;50.988;10.318;2023-03-01T02:11:31;36.80;;;26.10;;
28180;SDS011;15464;50.988;10.318;2023-03-01T02:13:59;39.30;;;25.65;;
28180;SDS011;15464;50.988;10.318;2023-03-01T02:16:26;36.20;;;24.85;;
28180;SDS011;15464;50.988;10.318;2023-03-01T02:18:53;56.33;;;33.00;;
28180;SDS011;15464;50.988;10.318;2023-03-01T02:23:53;41.08;;;26.30;;
28180;SDS011;15464;50.988;10.318;2023-03-01T02:29:08;41.38;;;28.48;;
28180;SDS011;15464;50.988;10.318;2023-03-01T02:31:35;42.55;;;27.92;;
28180;SDS011;15464;50.988;10.318;2023-03-01T02:34:12;50.50;;;29.58;;
28180;SDS011;15464;50.988;10.318;2023-03-01T02:36:45;58.22;;;37.40;;
28180;SDS011;15464;50.988;10.318;2023-03-01T02:39:15;51.33;;;32.92;;
28180;SDS011;15464;50.988;10.318;2023-03-01T02:41:47;41.75;;;28.80;;
28180;SDS011;15464;50.988;10.318;2023-03-01T02:44:16;43.92;;;29.63;;
28180;SDS011;15464;50.988;10.318;2023-03-01T02:46:47;45.47;;;30.83;;
28180;SDS011;15464;50.988;10.318;2023-03-01T02:49:26;52.28;;;31.67;;
28180;SDS011;15464;50.988;10.318;2023-03-01T02:57:09;46.42;;;29.67;;
28180;SDS011;15464;50.988;10.318;2023-03-01T02:59:36;44.05;;;29.17;;
28180;SDS011;15464;50.988;10.318;2023-03-01T03:02:18;42.95;;;27.90;;
28180;SDS011;15464;50.988;10.318;2023-03-01T03:05:05;41.08;;;27.40;;
28180;SDS011;15464;50.988;10.318;2023-03-01T03:07:38;41.88;;;28.23;;
28180;SDS011;15464;50.988;10.318;2023-03-01T03:10:13;44.30;;;28.63;;
28180;SDS011;15464;50.988;10.318;2023-03-01T03:12:43;45.65;;;30.10;;
28180;SDS011;15464;50.988;10.318;2023-03-01T03:15:10;53.15;;;32.35;;
28180;SDS011;15464;50.988;10.318;2023-03-01T03:17:39;51.28;;;30.45;;
28180;SDS011;15464;50.988;10.318;2023-03-01T03:20:11;47.42;;;30.08;;
28180;SDS011;15464;50.988;10.318;2023-03-01T03:22:49;49.83;;;29.40;;
28180;SDS011;15464;50.988;10.318;2023-03-01T03:25:17;45.17;;;29.20;;
28180;SDS011;15464;50.988;10.318;2023-03-01T03:27:46;41.92;;;29.70;;
28180;SDS011;15464;50.988;10.318;2023-03-01T03:30:15;43.90;;;29.80;;
28180;SDS011;15464;50.988;10.318;2023-03-01T03:32:44;48.40;;;30.88;;
28180;SDS011;15464;50.988;10.318;2023-03-01T03:35:29;50.00;;;31.70;;
28180;SDS011;15464;50.988;10.318;2023-03-01T03:37:59;45.60;;;28.33;;
28180;SDS011;15464;50.988;10.318;2023-03-01T03:40:40;44.03;;;31.08;;
28180;SDS011;15464;50.988;10.318;2023-03-01T03:43:11;47.53;;;30.55;;
28180;SDS011;15464;50.988;10.318;2023-03-01T03:45:39;44.58;;;30.80;;
28180;SDS011;15464;50.988;10.318;2023-03-01T03:48:07;47.13;;;30.33;;
28180;SDS011;15464;50.988;10.318;2023-03-01T03:50:36;50.92;;;31.52;;
28180;SDS011;15464;50.988;10.318;2023-03-01T03:53:05;39.00;;;26.57;;
28180;SDS011;15464;50.988;10.318;2023-03-01T03:55:33;46.35;;;29.42;;
28180;SDS011;15464;50.988;10.318;2023-03-01T03:58:01;48.30;;;30.05;;
28180;SDS011;15464;50.988;10.318;2023-03-01T04:00:37;45.28;;;28.98;;
28180;SDS011;15464;50.988;10.318;2023-03-01T04:03:08;45.63;;;29.13;;
28180;SDS011;15464;50.988;10.318;2023-03-01T04:05:37;48.70;;;30.90;;
28180;SDS011;15464;50.988;10.318;2023-03-01T04:08:05;53.38;;;31.98;;
28180;SDS011;15464;50.988;10.318;2023-03-01T04:10:43;47.95;;;28.75;;
28180;SDS011;15464;50.988;10.318;2023-03-01T04:13:12;44.00;;;28.23;;
28180;SDS011;15464;50.988;10.318;2023-03-01T04:15:41;47.38;;;27.60;;
28180;SDS011;15464;50.988;10.318;2023-03-01T04:18:16;39.45;;;26.63;;
28180;SDS011;15464;50.988;10.318;2023-03-01T04:20:43;46.20;;;29.75;;
28180;SDS011;15464;50.988;10.318;2023-03-01T04:23:15;44.25;;;29.42;;
28180;SDS011;15464;50.988;10.318;2023-03-01T04:25:47;45.53;;;30.45;;
28180;SDS011;15464;50.988;10.318;2023-03-01T04:28:23;46.00;;;30.35;;
28180;SDS011;15464;50.988;10.318;2023-03-01T04:30:51;44.58;;;29.52;;
28180;SDS011;15464;50.988;10.318;2023-03-01T04:33:18;46.28;;;30.65;;
28180;SDS011;15464;50.988;10.318;2023-03-01T04:35:46;47.47;;;28.15;;
28180;SDS011;15464;50.988;10.318;2023-03-01T04:38:16;42.40;;;27.17;;
28180;SDS011;15464;50.988;10.318;2023-03-01T04:40:44;40.63;;;27.13;;
28180;SDS011;15464;50.988;10.318;2023-03-01T04:43:11;43.58;;;28.15;;
28180;SDS011;15464;50.988;10.318;2023-03-01T04:45:41;42.22;;;27.85;;
28180;SDS011;15464;50.988;10.318;2023-03-01T04:48:08;40.08;;;26.75;;
28180;SDS011;15464;50.988;10.318;2023-03-01T04:50:34;41.20;;;28.10;;
28180;SDS011;15464;50.988;10.318;2023-03-01T04:53:01;40.42;;;27.20;;
28180;SDS011;15464;50.988;10.318;2023-03-01T04:55:28;41.83;;;26.70;;
28180;SDS011;15464;50.988;10.318;2023-03-01T04:57:55;45.60;;;28.73;;
28180;SDS011;15464;50.988;10.318;2023-03-01T05:00:22;46.20;;;29.42;;
28180;SDS011;15464;50.988;10.318;2023-03-01T05:02:53;42.78;;;26.80;;
28180;SDS011;15464;50.988;10.318;2023-03-01T05:07:55;41.42;;;27.92;;
28180;SDS011;15464;50.988;10.318;2023-03-01T05:10:24;38.63;;;26.27;;
28180;SDS011;15464;50.988;10.318;2023-03-01T05:12:52;41.20;;;26.85;;
28180;SDS011;15464;50.988;10.318;2023-03-01T05:15:19;44.53;;;26.77;;
28180;SDS011;15464;50.988;10.318;2023-03-01T05:17:48;31.38;;;19.73;;
28180;SDS011;15464;50.988;10.318;2023-03-01T05:20:15;44.95;;;28.00;;
28180;SDS011;15464;50.988;10.318;2023-03-01T05:22:42;44.45;;;29.52;;
28180;SDS011;15464;50.988;10.318;2023-03-01T05:25:09;44.75;;;29.33;;
28180;SDS011;15464;50.988;10.318;2023-03-01T05:27:36;42.95;;;27.65;;
28180;SDS011;15464;50.988;10.318;2023-03-01T05:30:02;45.95;;;30.77;;
28180;SDS011;15464;50.988;10.318;2023-03-01T05:32:42;43.42;;;30.17;;
28180;SDS011;15464;50.988;10.318;2023-03-01T05:35:14;47.15;;;30.17;;
28180;SDS011;15464;50.988;10.318;2023-03-01T05:37:43;48.60;;;30.08;;
28180;SDS011;15464;50.988;10.318;2023-03-01T05:40:12;46.85;;;28.90;;
28180;SDS011;15464;50.988;10.318;2023-03-01T05:42:44;42.47;;;29.15;;
28180;SDS011;15464;50.988;10.318;2023-03-01T05:45:13;42.55;;;27.52;;
28180;SDS011;15464;50.988;10.318;2023-03-01T05:47:41;42.38;;;28.55;;
28180;SDS011;15464;50.988;10.318;2023-03-01T05:50:11;47.55;;;28.17;;
28180;SDS011;15464;50.988;10.318;2023-03-01T05:55:06;42.28;;;26.98;;
28180;SDS011;15464;50.988;10.318;2023-03-01T05:57:33;49.03;;;28.40;;
28180;SDS011;15464;50.988;10.318;2023-03-01T05:59:59;52.92;;;32.15;;
28180;SDS011;15464;50.988;10.318;2023-03-01T06:02:26;63.03;;;34.03;;
28180;SDS011;15464;50.988;10.318;2023-03-01T06:04:53;48.35;;;29.23;;
28180;SDS011;15464;50.988;10.318;2023-03-01T06:07:20;47.78;;;29.70;;
28180;SDS011;15464;50.988;10.318;2023-03-01T06:09:46;36.25;;;24.33;;
28180;SDS011;15464;50.988;10.318;2023-03-01T06:12:13;42.60;;;25.92;;
28180;SDS011;15464;50.988;10.318;2023-03-01T06:14:40;41.70;;;26.00;;
28180;SDS011;15464;50.988;10.318;2023-03-01T06:17:06;38.95;;;25.88;;
28180;SDS011;15464;50.988;10.318;2023-03-01T06:19:33;42.97;;;26.85;;
28180;SDS011;15464;50.988;10.318;2023-03-01T06:21:59;41.70;;;26.60;;
28180;SDS011;15464;50.988;10.318;2023-03-01T06:24:26;39.05;;;25.55;;
28180;SDS011;15464;50.988;10.318;2023-03-01T06:26:54;38.05;;;25.30;;
28180;SDS011;15464;50.988;10.318;2023-03-01T06:29:22;40.50;;;25.85;;
28180;SDS011;15464;50.988;10.318;2023-03-01T06:31:48;39.22;;;24.10;;
28180;SDS011;15464;50.988;10.318;2023-03-01T06:34:15;40.35;;;26.10;;
28180;SDS011;15464;50.988;10.318;2023-03-01T06:36:42;42.47;;;27.55;;
28180;SDS011;15464;50.988;10.318;2023-03-01T06:39:08;41.20;;;29.23;;
28180;SDS011;15464;50.988;10.318;2023-03-01T06:41:35;47.50;;;30.33;;
28180;SDS011;15464;50.988;10.318;2023-03-01T06:44:02;45.83;;;30.35;;
28180;SDS011;15464;50.988;10.318;2023-03-01T06:46:28;42.28;;;28.05;;
28180;SDS011;15464;50.988;10.318;2023-03-01T06:48:56;54.25;;;32.28;;
28180;SDS011;15464;50.988;10.318;2023-03-01T06:51:22;49.38;;;30.58;;
28180;SDS011;15464;50.988;10.318;2023-03-01T06:53:49;43.33;;;25.85;;
28180;SDS011;15464;50.988;10.318;2023-03-01T06:56:16;35.50;;;23.85;;
28180;SDS011;15464;50.988;10.318;2023-03-01T06:58:42;33.20;;;23.65;;
28180;SDS011;15464;50.988;10.318;2023-03-01T07:01:09;34.22;;;22.35;;
28180;SDS011;15464;50.988;10.318;2023-03-01T07:03:36;28.75;;;19.42;;
28180;SDS011;15464;50.988;10.318;2023-03-01T07:06:02;37.28;;;22.10;;
28180;SDS011;15464;50.988;10.318;2023-03-01T07:08:29;29.90;;;19.70;;
28180;SDS011;15464;50.988;10.318;2023-03-01T07:10:56;33.78;;;19.95;;
28180;SDS011;15464;50.988;10.318;2023-03-01T07:13:23;26.52;;;19.30;;
28180;SDS011;15464;50.988;10.318;2023-03-01T07:15:50;27.55;;;18.85;;
28180;SDS011;15464;50.988;10.318;2023-03-01T07:18:17;29.85;;;19.10;;
28180;SDS011;15464;50.988;10.318;2023-03-01T07:20:44;33.10;;;20.55;;
28180;SDS011;15464;50.988;10.318;2023-03-01T07:23:10;28.27;;;20.08;;
28180;SDS011;15464;50.988;10.318;2023-03-01T07:25:37;30.60;;;20.92;;
28180;SDS011;15464;50.988;10.318;2023-03-01T07:28:04;29.00;;;21.40;;
28180;SDS011;15464;50.988;10.318;2023-03-01T07:30:30;30.05;;;21.90;;
28180;SDS011;15464;50.988;10.318;2023-03-01T07:32:58;34.35;;;22.88;;
28180;SDS011;15464;50.988;10.318;2023-03-01T07:35:26;34.65;;;23.05;;
28180;SDS011;15464;50.988;10.318;2023-03-01T07:37:54;34.77;;;22.57;;
28180;SDS011;15464;50.988;10.318;2023-03-01T07:40:21;33.50;;;23.92;;
28180;SDS011;15464;50.988;10.318;2023-03-01T07:42:48;32.25;;;21.70;;
28180;SDS011;15464;50.988;10.318;2023-03-01T07:45:15;32.30;;;22.08;;
28180;SDS011;15464;50.988;10.318;2023-03-01T07:47:41;31.20;;;22.52;;
28180;SDS011;15464;50.988;10.318;2023-03-01T07:50:08;33.30;;;24.02;;
28180;SDS011;15464;50.988;10.318;2023-03-01T07:52:36;32.22;;;22.08;;
28180;SDS011;15464;50.988;10.318;2023-03-01T07:55:02;30.40;;;21.23;;
28180;SDS011;15464;50.988;10.318;2023-03-01T07:57:29;32.30;;;21.73;;
28180;SDS011;15464;50.988;10.318;2023-03-01T07:59:56;31.95;;;21.65;;
28180;SDS011;15464;50.988;10.318;2023-03-01T08:02:22;29.48;;;20.92;;
28180;SDS011;15464;50.988;10.318;2023-03-01T08:04:49;28.85;;;19.65;;
28180;SDS011;15464;50.988;10.318;2023-03-01T08:07:16;28.83;;;20.55;;
28180;SDS011;15464;50.988;10.318;2023-03-01T08:09:42;25.63;;;19.27;;
28180;SDS011;15464;50.988;10.318;2023-03-01T08:12:09;28.40;;;20.30;;
28180;SDS011;15464;50.988;10.318;2023-03-01T08:14:36;26.02;;;20.25;;
28180;SDS011;15464;50.988;10.318;2023-03-01T08:17:02;29.10;;;19.30;;
28180;SDS011;15464;50.988;10.318;2023-03-01T08:19:29;27.80;;;19.13;;
28180;SDS011;15464;50.988;10.318;2023-03-01T08:22:16;36.92;;;21.17;;
28180;SDS011;15464;50.988;10.318;2023-03-01T08:24:43;28.83;;;20.48;;
28180;SDS011;15464;50.988;10.318;2023-03-01T08:27:10;26.58;;;17.25;;
28180;SDS011;15464;50.988;10.318;2023-03-01T08:29:38;24.88;;;18.45;;
28180;SDS011;15464;50.988;10.318;2023-03-01T08:32:04;25.60;;;18.55;;
28180;SDS011;15464;50.988;10.318;2023-03-01T08:34:31;27.58;;;20.00;;
28180;SDS011;15464;50.988;10.318;2023-03-01T08:36:58;23.42;;;17.95;;
28180;SDS011;15464;50.988;10.318;2023-03-01T08:39:25;25.02;;;17.60;;
28180;SDS011;15464;50.988;10.318;2023-03-01T08:41:51;26.60;;;18.17;;
28180;SDS011;15464;50.988;10.318;2023-03-01T08:44:18;26.23;;;18.70;;
28180;SDS011;15464;50.988;10.318;2023-03-01T08:46:47;27.57;;;18.30;;
28180;SDS011;15464;50.988;10.318;2023-03-01T08:49:16;26.05;;;18.00;;
28180;SDS011;15464;50.988;10.318;2023-03-01T08:51:45;28.42;;;18.42;;
28180;SDS011;15464;50.988;10.318;2023-03-01T08:54:13;27.60;;;19.70;;
28180;SDS011;15464;50.988;10.318;2023-03-01T08:56:42;25.48;;;17.25;;
28180;SDS011;15464;50.988;10.318;2023-03-01T08:59:10;26.20;;;17.52;;
28180;SDS011;15464;50.988;10.318;2023-03-01T09:01:37;25.63;;;17.90;;
28180;SDS011;15464;50.988;10.318;2023-03-01T09:04:04;22.55;;;16.98;;
28180;SDS011;15464;50.988;10.318;2023-03-01T09:06:31;27.88;;;18.88;;
28180;SDS011;15464;50.988;10.318;2023-03-01T09:08:59;24.13;;;17.42;;
28180;SDS011;15464;50.988;10.318;2023-03-01T09:11:27;23.15;;;16.75;;
28180;SDS011;15464;50.988;10.318;2023-03-01T09:13:54;21.95;;;16.17;;
28180;SDS011;15464;50.988;10.318;2023-03-01T09:16:21;25.30;;;16.02;;
28180;SDS011;15464;50.988;10.318;2023-03-01T09:18:49;28.15;;;16.55;;
28180;SDS011;15464;50.988;10.318;2023-03-01T09:21:20;22.33;;;15.45;;
28180;SDS011;15464;50.988;10.318;2023-03-01T09:24:05;23.25;;;16.20;;
28180;SDS011;15464;50.988;10.318;2023-03-01T09:26:33;25.50;;;16.83;;
28180;SDS011;15464;50.988;10.318;2023-03-01T09:28:59;20.50;;;15.77;;
28180;SDS011;15464;50.988;10.318;2023-03-01T09:31:26;22.80;;;16.30;;
28180;SDS011;15464;50.988;10.318;2023-03-01T09:33:53;25.55;;;16.00;;
28180;SDS011;15464;50.988;10.318;2023-03-01T09:36:21;26.70;;;17.08;;
28180;SDS011;15464;50.988;10.318;2023-03-01T09:38:51;22.38;;;16.35;;
28180;SDS011;15464;50.988;10.318;2023-03-01T09:41:35;25.40;;;16.75;;
28180;SDS011;15464;50.988;10.318;2023-03-01T09:46:55;23.63;;;16.08;;
28180;SDS011;15464;50.988;10.318;2023-03-01T09:49:27;23.35;;;15.35;;
28180;SDS011;15464;50.988;10.318;2023-03-01T09:52:02;25.25;;;17.20;;
28180;SDS011;15464;50.988;10.318;2023-03-01T09:54:35;26.40;;;16.40;;
28180;SDS011;15464;50.988;10.318;2023-03-01T10:00:30;20.88;;;14.27;;
28180;SDS011;15464;50.988;10.318;2023-03-01T10:02:45;23.15;;;15.65;;
28180;SDS011;15464;50.988;10.318;2023-03-01T10:10:36;20.40;;;15.88;;
28180;SDS011;15464;50.988;10.318;2023-03-01T10:13:50;21.75;;;14.57;;
28180;SDS011;15464;50.988;10.318;2023-03-01T10:16:16;24.70;;;15.73;;
28180;SDS011;15464;50.988;10.318;2023-03-01T10:18:48;20.77;;;14.52;;
28180;SDS011;15464;50.988;10.318;2023-03-01T10:21:22;23.73;;;16.10;;
28180;SDS011;15464;50.988;10.318;2023-03-01T10:23:50;19.42;;;14.13;;
28180;SDS011;15464;50.988;10.318;2023-03-01T10:29:14;20.55;;;14.98;;
28180;SDS011;15464;50.988;10.318;2023-03-01T10:31:44;20.65;;;14.82;;
28180;SDS011;15464;50.988;10.318;2023-03-01T10:36:42;21.08;;;15.63;;
28180;SDS011;15464;50.988;10.318;2023-03-01T10:39:18;23.65;;;16.52;;
28180;SDS011;15464;50.988;10.318;2023-03-01T10:42:03;22.23;;;14.85;;
28180;SDS011;15464;50.988;10.318;2023-03-01T10:44:40;21.45;;;15.35;;
28180;SDS011;15464;50.988;10.318;2023-03-01T10:47:16;19.40;;;14.68;;
28180;SDS011;15464;50.988;10.318;2023-03-01T10:49:51;21.38;;;15.38;;
28180;SDS011;15464;50.988;10.318;2023-03-01T10:52:40;23.05;;;15.95;;
28180;SDS011;15464;50.988;10.318;2023-03-01T10:58:06;25.20;;;16.73;;
28180;SDS011;15464;50.988;10.318;2023-03-01T11:01:06;21.85;;;16.27;;
28180;SDS011;15464;50.988;10.318;2023-03-01T11:04:03;23.60;;;16.00;;
28180;SDS011;15464;50.988;10.318;2023-03-01T11:06:29;24.98;;;16.40;;
28180;SDS011;15464;50.988;10.318;2023-03-01T11:08:56;23.65;;;15.88;;
28180;SDS011;15464;50.988;10.318;2023-03-01T11:11:24;24.90;;;16.67;;
28180;SDS011;15464;50.988;10.318;2023-03-01T11:14:03;22.23;;;15.43;;
28180;SDS011;15464;50.988;10.318;2023-03-01T11:17:01;23.63;;;15.15;;
28180;SDS011;15464;50.988;10.318;2023-03-01T11:19:29;21.30;;;15.98;;
28180;SDS011;15464;50.988;10.318;2023-03-01T11:21:58;24.30;;;16.30;;
28180;SDS011;15464;50.988;10.318;2023-03-01T11:24:30;24.60;;;16.38;;
28180;SDS011;15464;50.988;10.318;2023-03-01T11:27:36;21.55;;;15.85;;
28180;SDS011;15464;50.988;10.318;2023-03-01T11:30:09;23.88;;;16.02;;
28180;SDS011;15464;50.988;10.318;2023-03-01T11:36:01;24.70;;;15.60;;
28180;SDS011;15464;50.988;10.318;2023-03-01T11:38:36;21.65;;;16.38;;
28180;SDS011;15464;50.988;10.318;2023-03-01T11:41:12;24.35;;;16.67;;
28180;SDS011;15464;50.988;10.318;2023-03-01T11:55:01;24.80;;;17.50;;
28180;SDS011;15464;50.988;10.318;2023-03-01T12:12:02;23.67;;;17.42;;
28180;SDS011;15464;50.988;10.318;2023-03-01T12:14:43;20.20;;;14.88;;
28180;SDS011;15464;50.988;10.318;2023-03-01T12:17:24;21.05;;;15.98;;
28180;SDS011;15464;50.988;10.318;2023-03-01T12:26:02;24.38;;;14.57;;
28180;SDS011;15464;50.988;10.318;2023-03-01T12:36:50;21.55;;;14.82;;
28180;SDS011;15464;50.988;10.318;2023-03-01T12:47:40;18.88;;;13.98;;
28180;SDS011;15464;50.988;10.318;2023-03-01T12:50:20;22.33;;;14.55;;
28180;SDS011;15464;50.988;10.318;2023-03-01T12:52:51;20.60;;;13.95;;
28180;SDS011;15464;50.988;10.318;2023-03-01T12:58:02;22.05;;;13.77;;
28180;SDS011;15464;50.988;10.318;2023-03-01T13:11:41;18.33;;;15.15;;
28180;SDS011;15464;50.988;10.318;2023-03-01T13:16:47;21.42;;;15.63;;
28180;SDS011;15464;50.988;10.318;2023-03-01T13:21:44;19.23;;;15.23;;
28180;SDS011;15464;50.988;10.318;2023-03-01T13:29:47;17.33;;;13.43;;
28180;SDS011;15464;50.988;10.318;2023-03-01T13:32:30;19.30;;;14.77;;
28180;SDS011;15464;50.988;10.318;2023-03-01T13:37:45;18.42;;;13.60;;
28180;SDS011;15464;50.988;10.318;2023-03-01T13:42:45;16.83;;;13.15;;
28180;SDS011;15464;50.988;10.318;2023-03-01T13:45:40;20.30;;;15.43;;
28180;SDS011;15464;50.988;10.318;2023-03-01T13:50:49;19.13;;;13.63;;
28180;SDS011;15464;50.988;10.318;2023-03-01T13:53:20;18.40;;;12.95;;
28180;SDS011;15464;50.988;10.318;2023-03-01T13:55:51;18.85;;;12.90;;
28180;SDS011;15464;50.988;10.318;2023-03-01T13:58:29;18.17;;;12.77;;
28180;SDS011;15464;50.988;10.318;2023-03-01T14:01:02;17.95;;;13.90;;
28180;SDS011;15464;50.988;10.318;2023-03-01T14:03:31;17.10;;;12.73;;
28180;SDS011;15464;50.988;10.318;2023-03-01T14:06:01;16.25;;;12.88;;
28180;SDS011;15464;50.988;10.318;2023-03-01T14:08:41;17.98;;;13.45;;
28180;SDS011;15464;50.988;10.318;2023-03-01T14:16:50;18.23;;;13.75;;
28180;SDS011;15464;50.988;10.318;2023-03-01T14:19:25;17.65;;;12.52;;
28180;SDS011;15464;50.988;10.318;2023-03-01T14:22:05;18.27;;;11.77;;
28180;SDS011;15464;50.988;10.318;2023-03-01T14:24:38;15.18;;;11.82;;
28180;SDS011;15464;50.988;10.318;2023-03-01T14:27:11;20.20;;;12.38;;
28180;SDS011;15464;50.988;10.318;2023-03-01T14:29:39;16.25;;;12.13;;
28180;SDS011;15464;50.988;10.318;2023-03-01T14:32:20;15.02;;;11.93;;
28180;SDS011;15464;50.988;10.318;2023-03-01T14:34:49;15.95;;;12.52;;
28180;SDS011;15464;50.988;10.318;2023-03-01T14:37:21;15.52;;;12.20;;
28180;SDS011;15464;50.988;10.318;2023-03-01T14:39:48;15.10;;;11.30;;
28180;SDS011;15464;50.988;10.318;2023-03-01T14:42:15;15.52;;;10.88;;
28180;SDS011;15464;50.988;10.318;2023-03-01T14:44:43;14.75;;;10.85;;
28180;SDS011;15464;50.988;10.318;2023-03-01T14:47:23;13.10;;;10.32;;
28180;SDS011;15464;50.988;10.318;2023-03-01T14:49:59;17.65;;;11.68;;
28180;SDS011;15464;50.988;10.318;2023-03-01T14:52:37;18.30;;;10.82;;
28180;SDS011;15464;50.988;10.318;2023-03-01T14:55:16;17.30;;;11.55;;
28180;SDS011;15464;50.988;10.318;2023-03-01T14:57:49;15.80;;;11.48;;
28180;SDS011;15464;50.988;10.318;2023-03-01T15:02:47;15.45;;;10.82;;
28180;SDS011;15464;50.988;10.318;2023-03-01T15:05:15;15.38;;;11.65;;
28180;SDS011;15464;50.988;10.318;2023-03-01T15:07:45;17.73;;;11.93;;
28180;SDS011;15464;50.988;10.318;2023-03-01T15:10:17;14.45;;;10.70;;
28180;SDS011;15464;50.988;10.318;2023-03-01T15:12:47;17.08;;;11.63;;
28180;SDS011;15464;50.988;10.318;2023-03-01T15:18:00;21.27;;;12.45;;
28180;SDS011;15464;50.988;10.318;2023-03-01T15:20:30;16.48;;;11.98;;
28180;SDS011;15464;50.988;10.318;2023-03-01T15:23:02;15.25;;;11.52;;
28180;SDS011;15464;50.988;10.318;2023-03-01T15:25:29;15.55;;;10.80;;
28180;SDS011;15464;50.988;10.318;2023-03-01T15:27:58;14.48;;;10.85;;
28180;SDS011;15464;50.988;10.318;2023-03-01T15:33:17;16.48;;;11.45;;
28180;SDS011;15464;50.988;10.318;2023-03-01T15:35:50;18.83;;;11.98;;
28180;SDS011;15464;50.988;10.318;2023-03-01T15:41:22;15.05;;;11.55;;
28180;SDS011;15464;50.988;10.318;2023-03-01T15:43:53;13.55;;;10.77;;
28180;SDS011;15464;50.988;10.318;2023-03-01T15:48:51;13.30;;;11.13;;
28180;SDS011;15464;50.988;10.318;2023-03-01T15:51:22;15.68;;;11.77;;
28180;SDS011;15464;50.988;10.318;2023-03-01T15:56:29;14.90;;;11.30;;
28180;SDS011;15464;50.988;10.318;2023-03-01T15:59:00;14.05;;;10.30;;
28180;SDS011;15464;50.988;10.318;2023-03-01T16:01:31;15.52;;;11.50;;
28180;SDS011;15464;50.988;10.318;2023-03-01T16:04:00;17.42;;;12.02;;
28180;SDS011;15464;50.988;10.318;2023-03-01T16:06:27;20.02;;;11.23;;
28180;SDS011;15464;50.988;10.318;2023-03-01T16:08:54;16.65;;;11.10;;
28180;SDS011;15464;50.988;10.318;2023-03-01T16:11:20;23.50;;;13.00;;
28180;SDS011;15464;50.988;10.318;2023-03-01T16:13:47;18.60;;;12.30;;
28180;SDS011;15464;50.988;10.318;2023-03-01T16:16:14;15.90;;;12.40;;
28180;SDS011;15464;50.988;10.318;2023-03-01T16:18:43;15.25;;;10.90;;
28180;SDS011;15464;50.988;10.318;2023-03-01T16:21:20;13.90;;;10.98;;
28180;SDS011;15464;50.988;10.318;2023-03-01T16:23:51;16.23;;;11.02;;
28180;SDS011;15464;50.988;10.318;2023-03-01T16:26:18;15.57;;;10.60;;
28180;SDS011;15464;50.988;10.318;2023-03-01T16:28:46;14.52;;;10.65;;
28180;SDS011;15464;50.988;10.318;2023-03-01T16:31:18;13.75;;;10.10;;
28180;SDS011;15464;50.988;10.318;2023-03-01T16:33:46;12.85;;;9.52;;
28180;SDS011;15464;50.988;10.318;2023-03-01T16:36:16;13.10;;;9.90;;
28180;SDS011;15464;50.988;10.318;2023-03-01T16:38:44;16.15;;;10.93;;
28180;SDS011;15464;50.988;10.318;2023-03-01T16:41:12;14.23;;;11.13;;
28180;SDS011;15464;50.988;10.318;2023-03-01T16:43:41;18.08;;;11.20;;
28180;SDS011;15464;50.988;10.318;2023-03-01T16:46:12;17.05;;;12.52;;
28180;SDS011;15464;50.988;10.318;2023-03-01T16:48:41;18.80;;;11.35;;
28180;SDS011;15464;50.988;10.318;2023-03-01T16:51:08;19.27;;;12.65;;
28180;SDS011;15464;50.988;10.318;2023-03-01T16:53:35;17.42;;;12.30;;
28180;SDS011;15464;50.988;10.318;2023-03-01T16:56:03;15.55;;;11.60;;
28180;SDS011;15464;50.988;10.318;2023-03-01T16:58:36;16.30;;;11.82;;
28180;SDS011;15464;50.988;10.318;2023-03-01T17:01:05;19.42;;;12.15;;